Monday, October 16, 2017, 11:57 PM EDT
Back to Local

KIPT, Williamsport-lycoming County

Location: Montoursville, PA, United States Lat: 41.25
Local Time: 11:57 PM EDT ( 3:57 GMT) Lon: -76.917
Time Zone: US/Eastern Elev: 528 ft

Show me the last for .
Show Decoded

2017-10-16 22:54 METAR KIPT 170254Z AUTO 34003KT 10SM CLR 07/01 A3027 RMK AO2 SLP251 T00720006
                 51023 =
2017-10-16 21:54 METAR KIPT 170154Z 29005KT 10SM CLR 08/M01 A3025 RMK AO2 SLP246 T00831006 =
2017-10-16 20:54 METAR KIPT 170054Z 32006KT 10SM CLR 10/M01 A3022 RMK AO2 SLP235 T01001006 =
2017-10-16 19:54 METAR KIPT 162354Z 33004KT 10SM CLR 11/M01 A3020 RMK AO2 SLP226 T01061006 10172
                 20106 53029 =
2017-10-16 18:54 METAR KIPT 162254Z 32005KT 10SM CLR 12/M01 A3016 RMK AO2 SLP213 T01171011 =
2017-10-16 17:54 METAR KIPT 162154Z 29010KT 10SM CLR 14/M02 A3013 RMK AO2 SLP202 T01391022 =
2017-10-16 16:54 METAR KIPT 162054Z 33010KT 10SM FEW075 16/M02 A3011 RMK AO2 SLP195 T01611017
                 53002 =
2017-10-16 15:54 METAR KIPT 161954Z 32010G19KT 10SM SCT070 16/M01 A3009 RMK AO2 SLP189 T01611006
                 =
2017-10-16 14:54 METAR KIPT 161854Z 34009G17KT 10SM FEW060 16/01 A3009 RMK AO2 SLP188 T01610006 =
2017-10-16 13:54 METAR KIPT 161754Z 35012KT 10SM BKN055 16/02 A3010 RMK AO2 SLP192 60000
                 T01560017 10161 20106 58007 =
2017-10-16 12:54 METAR KIPT 161654Z 33010G17KT 10SM BKN043 14/02 A3012 RMK AO2 SLP199 T01390017 =
2017-10-16 11:54 METAR KIPT 161554Z 34011KT 10SM OVC045 12/03 A3013 RMK AO2 SLP203 T01220028 =
2017-10-16 10:54 METAR KIPT 161454Z 31010KT 10SM OVC037 12/03 A3013 RMK AO2 SLP201 60000
                 T01170033 51020 =
2017-10-16 09:54 METAR KIPT 161354Z 31012G16KT 10SM OVC036 11/04 A3012 RMK AO2 SLP199 T01110039 =
2017-10-16 08:54 METAR KIPT 161254Z 33013G18KT 10SM OVC037 11/04 A3011 RMK AO2 RAB04E13 SLP194
                 P0000 T01060039 =
2017-10-16 07:54 METAR KIPT 161154Z 02007KT 10SM FEW032 OVC041 11/07 A3006 RMK AO2 SLP180 70006
                 T01060067 10172 20106 53027 =
2017-10-16 06:54 METAR KIPT 161054Z 32008KT 10SM BKN037 OVC047 12/05 A3003 RMK AO2 SLP168
                 T01220050 $ =
2017-10-16 05:54 METAR KIPT 160954Z AUTO 28007KT 10SM BKN049 12/05 A3001 RMK AO2 SLP159 T01170050
                 $ =
2017-10-16 04:54 METAR KIPT 160854Z AUTO 33010KT 10SM OVC038 14/07 A2998 RMK AO2 SLP151 T01390067
                 53025 $ =
2017-10-16 03:54 METAR KIPT 160754Z AUTO 32010KT 10SM FEW060 14/07 A2994 RMK AO2 SLP137 T01440072
                 $ =
2017-10-16 02:54 METAR KIPT 160654Z AUTO 32011KT 10SM FEW034 BKN046 BKN060 16/09 A2993 RMK AO2
                 SLP133 T01610089 $ =
2017-10-16 01:54 METAR KIPT 160554Z AUTO 28007KT 10SM SCT065 17/11 A2991 RMK AO2 SLP125 60006
                 T01720106 10228 20172 51020 $ =
2017-10-16 00:54 METAR KIPT 160454Z AUTO 28009KT 10SM FEW060 18/11 A2989 RMK AO2 RAB19E30 SLP120
                 P0000 T01780111 402390161 $ =

Support USWX by starting your Amazon purchase here.